sensor_id;sensor_type;location;lat;lon;timestamp;P1;durP1;ratioP1;P2;durP2;ratioP2
48403;SDS011;34202;52.536;6.042;2023-07-30T00:01:51;9.60;;;3.50;;
48403;SDS011;34202;52.536;6.042;2023-07-30T00:06:52;8.80;;;3.50;;
48403;SDS011;34202;52.536;6.042;2023-07-30T00:11:52;8.70;;;2.70;;
48403;SDS011;34202;52.536;6.042;2023-07-30T00:16:52;19.00;;;2.90;;
48403;SDS011;34202;52.536;6.042;2023-07-30T00:21:53;12.50;;;2.70;;
48403;SDS011;34202;52.536;6.042;2023-07-30T00:26:53;10.30;;;2.70;;
48403;SDS011;34202;52.536;6.042;2023-07-30T00:31:54;14.70;;;2.70;;
48403;SDS011;34202;52.536;6.042;2023-07-30T00:36:54;12.40;;;2.90;;
48403;SDS011;34202;52.536;6.042;2023-07-30T00:41:54;9.50;;;3.50;;
48403;SDS011;34202;52.536;6.042;2023-07-30T00:46:55;10.70;;;2.70;;
48403;SDS011;34202;52.536;6.042;2023-07-30T00:51:55;10.40;;;3.00;;
48403;SDS011;34202;52.536;6.042;2023-07-30T00:56:56;8.40;;;2.50;;
48403;SDS011;34202;52.536;6.042;2023-07-30T01:01:57;16.60;;;2.90;;
48403;SDS011;34202;52.536;6.042;2023-07-30T01:06:59;9.70;;;2.80;;
48403;SDS011;34202;52.536;6.042;2023-07-30T01:11:59;11.40;;;2.50;;
48403;SDS011;34202;52.536;6.042;2023-07-30T01:17:01;15.20;;;2.70;;
48403;SDS011;34202;52.536;6.042;2023-07-30T01:22:02;9.00;;;2.70;;
48403;SDS011;34202;52.536;6.042;2023-07-30T01:27:04;10.60;;;2.50;;
48403;SDS011;34202;52.536;6.042;2023-07-30T01:32:07;13.70;;;2.90;;
48403;SDS011;34202;52.536;6.042;2023-07-30T01:37:11;9.10;;;3.00;;
48403;SDS011;34202;52.536;6.042;2023-07-30T01:42:14;8.50;;;2.50;;
48403;SDS011;34202;52.536;6.042;2023-07-30T01:47:15;12.70;;;3.40;;
48403;SDS011;34202;52.536;6.042;2023-07-30T01:52:15;5.90;;;2.40;;
48403;SDS011;34202;52.536;6.042;2023-07-30T01:57:16;8.70;;;2.50;;
48403;SDS011;34202;52.536;6.042;2023-07-30T02:02:16;8.40;;;2.70;;
48403;SDS011;34202;52.536;6.042;2023-07-30T02:07:16;13.80;;;2.80;;
48403;SDS011;34202;52.536;6.042;2023-07-30T02:12:17;11.40;;;3.20;;
48403;SDS011;34202;52.536;6.042;2023-07-30T02:17:17;8.30;;;3.00;;
48403;SDS011;34202;52.536;6.042;2023-07-30T02:22:17;10.60;;;2.70;;
48403;SDS011;34202;52.536;6.042;2023-07-30T02:27:18;9.60;;;2.60;;
48403;SDS011;34202;52.536;6.042;2023-07-30T02:32:18;9.80;;;2.30;;
48403;SDS011;34202;52.536;6.042;2023-07-30T02:37:18;10.50;;;3.50;;
48403;SDS011;34202;52.536;6.042;2023-07-30T02:42:19;11.00;;;4.20;;
48403;SDS011;34202;52.536;6.042;2023-07-30T02:47:19;6.40;;;2.50;;
48403;SDS011;34202;52.536;6.042;2023-07-30T02:52:20;6.30;;;2.60;;
48403;SDS011;34202;52.536;6.042;2023-07-30T02:57:20;13.70;;;3.40;;
48403;SDS011;34202;52.536;6.042;2023-07-30T03:02:20;13.60;;;3.60;;
48403;SDS011;34202;52.536;6.042;2023-07-30T03:07:21;12.30;;;3.40;;
48403;SDS011;34202;52.536;6.042;2023-07-30T03:12:21;11.90;;;4.20;;
48403;SDS011;34202;52.536;6.042;2023-07-30T03:17:22;15.30;;;3.70;;
48403;SDS011;34202;52.536;6.042;2023-07-30T03:22:22;11.10;;;3.60;;
48403;SDS011;34202;52.536;6.042;2023-07-30T03:27:23;13.20;;;3.50;;
48403;SDS011;34202;52.536;6.042;2023-07-30T03:32:23;11.60;;;3.70;;
48403;SDS011;34202;52.536;6.042;2023-07-30T03:37:24;8.60;;;3.90;;
48403;SDS011;34202;52.536;6.042;2023-07-30T03:42:24;11.90;;;3.80;;
48403;SDS011;34202;52.536;6.042;2023-07-30T03:47:25;6.60;;;3.40;;
48403;SDS011;34202;52.536;6.042;2023-07-30T03:52:25;14.20;;;4.00;;
48403;SDS011;34202;52.536;6.042;2023-07-30T03:57:25;18.70;;;3.90;;
48403;SDS011;34202;52.536;6.042;2023-07-30T04:02:26;14.00;;;3.40;;
48403;SDS011;34202;52.536;6.042;2023-07-30T04:07:26;10.40;;;3.60;;
48403;SDS011;34202;52.536;6.042;2023-07-30T04:12:27;11.90;;;3.80;;
48403;SDS011;34202;52.536;6.042;2023-07-30T04:17:27;16.60;;;4.10;;
48403;SDS011;34202;52.536;6.042;2023-07-30T04:22:27;20.20;;;3.80;;
48403;SDS011;34202;52.536;6.042;2023-07-30T04:27:28;10.80;;;3.80;;
48403;SDS011;34202;52.536;6.042;2023-07-30T04:32:28;13.40;;;4.70;;
48403;SDS011;34202;52.536;6.042;2023-07-30T04:37:29;11.70;;;5.30;;
48403;SDS011;34202;52.536;6.042;2023-07-30T04:42:29;17.30;;;4.50;;
48403;SDS011;34202;52.536;6.042;2023-07-30T04:47:30;14.00;;;4.00;;
48403;SDS011;34202;52.536;6.042;2023-07-30T04:52:30;11.50;;;5.50;;
48403;SDS011;34202;52.536;6.042;2023-07-30T04:57:31;11.90;;;4.70;;
48403;SDS011;34202;52.536;6.042;2023-07-30T05:02:31;16.20;;;4.90;;
48403;SDS011;34202;52.536;6.042;2023-07-30T05:07:31;22.90;;;4.50;;
48403;SDS011;34202;52.536;6.042;2023-07-30T05:12:32;27.90;;;5.60;;
48403;SDS011;34202;52.536;6.042;2023-07-30T05:17:32;20.10;;;6.30;;
48403;SDS011;34202;52.536;6.042;2023-07-30T05:22:33;18.30;;;5.30;;
48403;SDS011;34202;52.536;6.042;2023-07-30T05:27:34;17.60;;;4.80;;
48403;SDS011;34202;52.536;6.042;2023-07-30T05:32:35;26.70;;;5.20;;
48403;SDS011;34202;52.536;6.042;2023-07-30T05:37:36;17.60;;;4.60;;
48403;SDS011;34202;52.536;6.042;2023-07-30T05:42:36;22.10;;;4.80;;
48403;SDS011;34202;52.536;6.042;2023-07-30T05:47:37;19.80;;;5.60;;
48403;SDS011;34202;52.536;6.042;2023-07-30T05:52:38;28.00;;;6.20;;
48403;SDS011;34202;52.536;6.042;2023-07-30T05:57:38;19.00;;;5.40;;
48403;SDS011;34202;52.536;6.042;2023-07-30T06:02:38;20.50;;;5.00;;
48403;SDS011;34202;52.536;6.042;2023-07-30T06:07:39;24.10;;;6.30;;
48403;SDS011;34202;52.536;6.042;2023-07-30T06:12:39;22.10;;;5.60;;
48403;SDS011;34202;52.536;6.042;2023-07-30T06:17:40;19.90;;;6.20;;
48403;SDS011;34202;52.536;6.042;2023-07-30T06:22:40;20.90;;;6.30;;
48403;SDS011;34202;52.536;6.042;2023-07-30T06:27:40;22.50;;;7.00;;
48403;SDS011;34202;52.536;6.042;2023-07-30T06:32:41;25.10;;;6.00;;
48403;SDS011;34202;52.536;6.042;2023-07-30T06:37:41;23.30;;;6.30;;
48403;SDS011;34202;52.536;6.042;2023-07-30T06:42:41;24.80;;;7.80;;
48403;SDS011;34202;52.536;6.042;2023-07-30T06:47:42;19.80;;;5.50;;
48403;SDS011;34202;52.536;6.042;2023-07-30T06:52:42;30.00;;;5.30;;
48403;SDS011;34202;52.536;6.042;2023-07-30T06:57:43;26.20;;;7.50;;
48403;SDS011;34202;52.536;6.042;2023-07-30T07:02:43;20.50;;;4.20;;
48403;SDS011;34202;52.536;6.042;2023-07-30T07:07:44;18.60;;;4.40;;
48403;SDS011;34202;52.536;6.042;2023-07-30T07:12:45;17.30;;;4.30;;
48403;SDS011;34202;52.536;6.042;2023-07-30T07:17:45;16.00;;;4.70;;
48403;SDS011;34202;52.536;6.042;2023-07-30T07:22:46;22.60;;;5.30;;
48403;SDS011;34202;52.536;6.042;2023-07-30T07:27:46;16.50;;;4.70;;
48403;SDS011;34202;52.536;6.042;2023-07-30T07:32:47;18.40;;;4.40;;
48403;SDS011;34202;52.536;6.042;2023-07-30T07:37:50;12.90;;;4.30;;
48403;SDS011;34202;52.536;6.042;2023-07-30T07:42:51;13.40;;;5.30;;
48403;SDS011;34202;52.536;6.042;2023-07-30T07:47:51;17.40;;;5.70;;
48403;SDS011;34202;52.536;6.042;2023-07-30T07:52:51;14.90;;;5.60;;
48403;SDS011;34202;52.536;6.042;2023-07-30T07:57:52;20.10;;;5.20;;
48403;SDS011;34202;52.536;6.042;2023-07-30T08:02:52;18.30;;;5.90;;
48403;SDS011;34202;52.536;6.042;2023-07-30T08:07:52;15.60;;;5.50;;
48403;SDS011;34202;52.536;6.042;2023-07-30T08:12:53;14.50;;;4.40;;
48403;SDS011;34202;52.536;6.042;2023-07-30T08:17:53;16.10;;;4.30;;
48403;SDS011;34202;52.536;6.042;2023-07-30T08:22:53;15.40;;;3.70;;
48403;SDS011;34202;52.536;6.042;2023-07-30T08:27:54;11.80;;;3.80;;
48403;SDS011;34202;52.536;6.042;2023-07-30T08:32:54;15.70;;;3.50;;
48403;SDS011;34202;52.536;6.042;2023-07-30T08:37:55;17.00;;;4.00;;
48403;SDS011;34202;52.536;6.042;2023-07-30T08:42:55;16.10;;;4.00;;
48403;SDS011;34202;52.536;6.042;2023-07-30T08:47:56;23.70;;;4.50;;
48403;SDS011;34202;52.536;6.042;2023-07-30T08:52:56;16.40;;;3.90;;
48403;SDS011;34202;52.536;6.042;2023-07-30T08:57:59;17.40;;;4.50;;
48403;SDS011;34202;52.536;6.042;2023-07-30T09:03:02;11.00;;;3.20;;
48403;SDS011;34202;52.536;6.042;2023-07-30T09:08:04;16.90;;;3.80;;
48403;SDS011;34202;52.536;6.042;2023-07-30T09:13:04;10.80;;;3.60;;
48403;SDS011;34202;52.536;6.042;2023-07-30T09:18:05;15.20;;;3.60;;
48403;SDS011;34202;52.536;6.042;2023-07-30T09:23:08;9.20;;;2.60;;
48403;SDS011;34202;52.536;6.042;2023-07-30T09:28:10;9.20;;;2.80;;
48403;SDS011;34202;52.536;6.042;2023-07-30T09:33:10;9.20;;;2.70;;
48403;SDS011;34202;52.536;6.042;2023-07-30T09:38:18;10.00;;;2.50;;
48403;SDS011;34202;52.536;6.042;2023-07-30T09:43:20;11.70;;;2.80;;
48403;SDS011;34202;52.536;6.042;2023-07-30T09:48:20;13.50;;;3.10;;
48403;SDS011;34202;52.536;6.042;2023-07-30T09:53:21;10.50;;;2.80;;
48403;SDS011;34202;52.536;6.042;2023-07-30T09:58:23;12.50;;;4.40;;
48403;SDS011;34202;52.536;6.042;2023-07-30T10:03:24;10.90;;;2.70;;
48403;SDS011;34202;52.536;6.042;2023-07-30T10:08:26;11.90;;;2.10;;
48403;SDS011;34202;52.536;6.042;2023-07-30T10:13:29;7.10;;;2.20;;
48403;SDS011;34202;52.536;6.042;2023-07-30T10:18:37;8.30;;;1.70;;
48403;SDS011;34202;52.536;6.042;2023-07-30T10:23:46;10.90;;;2.50;;
48403;SDS011;34202;52.536;6.042;2023-07-30T10:34:17;13.20;;;2.90;;
48403;SDS011;34202;52.536;6.042;2023-07-30T10:39:19;7.90;;;2.20;;
48403;SDS011;34202;52.536;6.042;2023-07-30T10:49:24;7.80;;;2.30;;
48403;SDS011;34202;52.536;6.042;2023-07-30T10:54:25;7.60;;;1.60;;
48403;SDS011;34202;52.536;6.042;2023-07-30T10:59:26;6.30;;;1.70;;
48403;SDS011;34202;52.536;6.042;2023-07-30T11:04:35;14.60;;;2.80;;
48403;SDS011;34202;52.536;6.042;2023-07-30T11:09:36;36.20;;;4.00;;
48403;SDS011;34202;52.536;6.042;2023-07-30T11:14:36;10.20;;;2.00;;
48403;SDS011;34202;52.536;6.042;2023-07-30T11:19:37;7.10;;;2.20;;
48403;SDS011;34202;52.536;6.042;2023-07-30T11:24:43;5.20;;;1.70;;
48403;SDS011;34202;52.536;6.042;2023-07-30T11:29:43;6.30;;;1.40;;
48403;SDS011;34202;52.536;6.042;2023-07-30T11:34:54;7.50;;;1.30;;
48403;SDS011;34202;52.536;6.042;2023-07-30T11:39:55;9.70;;;1.90;;
48403;SDS011;34202;52.536;6.042;2023-07-30T11:44:55;5.00;;;1.10;;
48403;SDS011;34202;52.536;6.042;2023-07-30T11:49:56;4.30;;;1.30;;
48403;SDS011;34202;52.536;6.042;2023-07-30T11:55:01;5.70;;;1.20;;
48403;SDS011;34202;52.536;6.042;2023-07-30T12:00:03;8.20;;;1.60;;
48403;SDS011;34202;52.536;6.042;2023-07-30T12:05:09;5.00;;;1.20;;
48403;SDS011;34202;52.536;6.042;2023-07-30T12:10:12;6.90;;;2.30;;
48403;SDS011;34202;52.536;6.042;2023-07-30T12:15:13;6.10;;;1.60;;
48403;SDS011;34202;52.536;6.042;2023-07-30T12:20:13;6.50;;;1.70;;
48403;SDS011;34202;52.536;6.042;2023-07-30T12:25:14;6.30;;;1.60;;
48403;SDS011;34202;52.536;6.042;2023-07-30T12:30:14;5.70;;;1.40;;
48403;SDS011;34202;52.536;6.042;2023-07-30T12:35:15;5.80;;;1.20;;
48403;SDS011;34202;52.536;6.042;2023-07-30T12:40:15;8.80;;;1.60;;
48403;SDS011;34202;52.536;6.042;2023-07-30T12:45:16;3.90;;;1.20;;
48403;SDS011;34202;52.536;6.042;2023-07-30T12:50:17;6.80;;;1.40;;
48403;SDS011;34202;52.536;6.042;2023-07-30T12:55:17;5.10;;;1.30;;
48403;SDS011;34202;52.536;6.042;2023-07-30T13:00:17;6.80;;;1.20;;
48403;SDS011;34202;52.536;6.042;2023-07-30T13:05:18;5.90;;;1.20;;
48403;SDS011;34202;52.536;6.042;2023-07-30T13:10:18;5.70;;;1.30;;
48403;SDS011;34202;52.536;6.042;2023-07-30T13:15:19;4.60;;;1.50;;
48403;SDS011;34202;52.536;6.042;2023-07-30T13:20:19;8.70;;;1.30;;
48403;SDS011;34202;52.536;6.042;2023-07-30T13:25:20;3.90;;;0.90;;
48403;SDS011;34202;52.536;6.042;2023-07-30T13:30:20;8.10;;;1.90;;
48403;SDS011;34202;52.536;6.042;2023-07-30T13:35:21;7.20;;;1.80;;
48403;SDS011;34202;52.536;6.042;2023-07-30T13:40:21;2.80;;;1.10;;
48403;SDS011;34202;52.536;6.042;2023-07-30T13:45:22;4.20;;;0.90;;
48403;SDS011;34202;52.536;6.042;2023-07-30T13:50:22;4.40;;;1.30;;
48403;SDS011;34202;52.536;6.042;2023-07-30T13:55:23;3.00;;;0.90;;
48403;SDS011;34202;52.536;6.042;2023-07-30T14:00:23;5.80;;;1.30;;
48403;SDS011;34202;52.536;6.042;2023-07-30T14:05:24;6.10;;;1.60;;
48403;SDS011;34202;52.536;6.042;2023-07-30T14:10:24;7.90;;;1.20;;
48403;SDS011;34202;52.536;6.042;2023-07-30T14:15:25;8.70;;;1.60;;
48403;SDS011;34202;52.536;6.042;2023-07-30T14:20:26;5.20;;;1.40;;
48403;SDS011;34202;52.536;6.042;2023-07-30T14:25:26;4.50;;;1.00;;
48403;SDS011;34202;52.536;6.042;2023-07-30T14:30:27;6.80;;;0.80;;
48403;SDS011;34202;52.536;6.042;2023-07-30T14:35:27;4.30;;;1.20;;
48403;SDS011;34202;52.536;6.042;2023-07-30T14:40:28;7.10;;;1.60;;
48403;SDS011;34202;52.536;6.042;2023-07-30T14:45:29;5.90;;;1.90;;
48403;SDS011;34202;52.536;6.042;2023-07-30T14:50:30;5.30;;;1.20;;
48403;SDS011;34202;52.536;6.042;2023-07-30T14:55:30;2.40;;;1.00;;
48403;SDS011;34202;52.536;6.042;2023-07-30T15:00:31;5.20;;;1.50;;
48403;SDS011;34202;52.536;6.042;2023-07-30T15:05:32;9.60;;;1.40;;
48403;SDS011;34202;52.536;6.042;2023-07-30T15:10:33;7.70;;;1.30;;
48403;SDS011;34202;52.536;6.042;2023-07-30T15:15:34;3.70;;;1.20;;
48403;SDS011;34202;52.536;6.042;2023-07-30T15:20:34;5.30;;;1.60;;
48403;SDS011;34202;52.536;6.042;2023-07-30T15:25:35;6.60;;;1.20;;
48403;SDS011;34202;52.536;6.042;2023-07-30T15:30:36;8.10;;;1.90;;
48403;SDS011;34202;52.536;6.042;2023-07-30T15:35:37;4.70;;;1.30;;
48403;SDS011;34202;52.536;6.042;2023-07-30T15:40:38;4.90;;;1.70;;
48403;SDS011;34202;52.536;6.042;2023-07-30T15:45:38;12.30;;;2.00;;
48403;SDS011;34202;52.536;6.042;2023-07-30T15:50:43;11.40;;;2.30;;
48403;SDS011;34202;52.536;6.042;2023-07-30T15:55:43;13.50;;;3.70;;
48403;SDS011;34202;52.536;6.042;2023-07-30T16:00:44;8.40;;;2.20;;
48403;SDS011;34202;52.536;6.042;2023-07-30T16:05:47;8.70;;;1.70;;
48403;SDS011;34202;52.536;6.042;2023-07-30T16:10:48;6.20;;;1.60;;
48403;SDS011;34202;52.536;6.042;2023-07-30T16:15:49;11.20;;;2.30;;
48403;SDS011;34202;52.536;6.042;2023-07-30T16:20:53;7.70;;;1.50;;
48403;SDS011;34202;52.536;6.042;2023-07-30T16:26:00;4.80;;;1.40;;
48403;SDS011;34202;52.536;6.042;2023-07-30T16:31:01;7.30;;;2.00;;
48403;SDS011;34202;52.536;6.042;2023-07-30T16:36:02;5.50;;;2.30;;
48403;SDS011;34202;52.536;6.042;2023-07-30T16:41:04;8.20;;;2.00;;
48403;SDS011;34202;52.536;6.042;2023-07-30T16:46:04;9.40;;;2.60;;
48403;SDS011;34202;52.536;6.042;2023-07-30T16:51:05;9.40;;;2.10;;
48403;SDS011;34202;52.536;6.042;2023-07-30T16:56:11;9.40;;;2.50;;
48403;SDS011;34202;52.536;6.042;2023-07-30T17:01:12;8.30;;;1.80;;
48403;SDS011;34202;52.536;6.042;2023-07-30T17:06:14;8.70;;;2.50;;
48403;SDS011;34202;52.536;6.042;2023-07-30T17:11:14;7.80;;;2.20;;
48403;SDS011;34202;52.536;6.042;2023-07-30T17:16:15;7.60;;;1.90;;
48403;SDS011;34202;52.536;6.042;2023-07-30T17:21:16;10.20;;;2.10;;
48403;SDS011;34202;52.536;6.042;2023-07-30T17:26:17;11.80;;;2.40;;
48403;SDS011;34202;52.536;6.042;2023-07-30T17:31:17;6.50;;;2.00;;
48403;SDS011;34202;52.536;6.042;2023-07-30T17:36:17;13.40;;;2.80;;
48403;SDS011;34202;52.536;6.042;2023-07-30T17:41:18;16.60;;;3.40;;
48403;SDS011;34202;52.536;6.042;2023-07-30T17:46:18;11.60;;;3.60;;
48403;SDS011;34202;52.536;6.042;2023-07-30T17:51:21;14.90;;;2.90;;
48403;SDS011;34202;52.536;6.042;2023-07-30T17:56:21;15.60;;;3.40;;
48403;SDS011;34202;52.536;6.042;2023-07-30T18:01:21;13.70;;;3.30;;
48403;SDS011;34202;52.536;6.042;2023-07-30T18:06:22;19.40;;;3.70;;
48403;SDS011;34202;52.536;6.042;2023-07-30T18:11:23;12.00;;;2.90;;
48403;SDS011;34202;52.536;6.042;2023-07-30T18:16:24;11.50;;;2.80;;
48403;SDS011;34202;52.536;6.042;2023-07-30T18:21:24;13.60;;;3.50;;
48403;SDS011;34202;52.536;6.042;2023-07-30T18:26:25;17.80;;;4.10;;
48403;SDS011;34202;52.536;6.042;2023-07-30T18:31:25;12.30;;;3.20;;
48403;SDS011;34202;52.536;6.042;2023-07-30T18:36:25;8.80;;;2.10;;
48403;SDS011;34202;52.536;6.042;2023-07-30T18:41:26;8.40;;;2.00;;
48403;SDS011;34202;52.536;6.042;2023-07-30T18:46:26;7.80;;;2.00;;
48403;SDS011;34202;52.536;6.042;2023-07-30T18:51:27;4.70;;;1.70;;
48403;SDS011;34202;52.536;6.042;2023-07-30T18:56:27;3.80;;;1.20;;
48403;SDS011;34202;52.536;6.042;2023-07-30T19:01:27;7.20;;;1.90;;
48403;SDS011;34202;52.536;6.042;2023-07-30T19:06:28;9.40;;;1.90;;
48403;SDS011;34202;52.536;6.042;2023-07-30T19:11:28;5.20;;;1.50;;
48403;SDS011;34202;52.536;6.042;2023-07-30T19:16:29;9.10;;;2.40;;
48403;SDS011;34202;52.536;6.042;2023-07-30T19:21:29;7.30;;;2.00;;
48403;SDS011;34202;52.536;6.042;2023-07-30T19:26:30;5.90;;;1.90;;
48403;SDS011;34202;52.536;6.042;2023-07-30T19:31:30;5.30;;;2.40;;
48403;SDS011;34202;52.536;6.042;2023-07-30T19:36:31;6.60;;;1.70;;
48403;SDS011;34202;52.536;6.042;2023-07-30T19:41:31;5.20;;;1.90;;
48403;SDS011;34202;52.536;6.042;2023-07-30T19:46:32;5.70;;;2.00;;
48403;SDS011;34202;52.536;6.042;2023-07-30T19:51:32;4.30;;;1.80;;
48403;SDS011;34202;52.536;6.042;2023-07-30T19:56:33;3.10;;;1.50;;
48403;SDS011;34202;52.536;6.042;2023-07-30T20:01:33;5.80;;;1.90;;
48403;SDS011;34202;52.536;6.042;2023-07-30T20:06:34;3.20;;;1.60;;
48403;SDS011;34202;52.536;6.042;2023-07-30T20:11:34;3.00;;;1.50;;
48403;SDS011;34202;52.536;6.042;2023-07-30T20:16:35;4.50;;;1.60;;
48403;SDS011;34202;52.536;6.042;2023-07-30T20:21:35;3.30;;;1.60;;
48403;SDS011;34202;52.536;6.042;2023-07-30T20:26:36;2.80;;;1.10;;
48403;SDS011;34202;52.536;6.042;2023-07-30T20:31:36;2.00;;;1.50;;
48403;SDS011;34202;52.536;6.042;2023-07-30T20:36:37;5.00;;;2.40;;
48403;SDS011;34202;52.536;6.042;2023-07-30T20:41:38;3.60;;;1.60;;
48403;SDS011;34202;52.536;6.042;2023-07-30T20:46:38;3.30;;;1.60;;
48403;SDS011;34202;52.536;6.042;2023-07-30T20:51:38;5.10;;;1.90;;
48403;SDS011;34202;52.536;6.042;2023-07-30T20:56:39;2.90;;;1.90;;
48403;SDS011;34202;52.536;6.042;2023-07-30T21:01:39;4.60;;;2.10;;
48403;SDS011;34202;52.536;6.042;2023-07-30T21:06:40;4.00;;;1.80;;
48403;SDS011;34202;52.536;6.042;2023-07-30T21:11:40;4.30;;;1.60;;
48403;SDS011;34202;52.536;6.042;2023-07-30T21:16:41;4.40;;;1.90;;
48403;SDS011;34202;52.536;6.042;2023-07-30T21:21:41;6.60;;;2.20;;
48403;SDS011;34202;52.536;6.042;2023-07-30T21:26:42;5.10;;;2.20;;
48403;SDS011;34202;52.536;6.042;2023-07-30T21:31:42;2.40;;;1.60;;
48403;SDS011;34202;52.536;6.042;2023-07-30T21:36:43;3.90;;;1.70;;
48403;SDS011;34202;52.536;6.042;2023-07-30T21:41:43;5.70;;;1.80;;
48403;SDS011;34202;52.536;6.042;2023-07-30T21:46:43;2.10;;;1.80;;
48403;SDS011;34202;52.536;6.042;2023-07-30T21:51:44;2.50;;;1.40;;
48403;SDS011;34202;52.536;6.042;2023-07-30T21:56:44;3.40;;;1.90;;
48403;SDS011;34202;52.536;6.042;2023-07-30T22:01:45;3.50;;;1.70;;
48403;SDS011;34202;52.536;6.042;2023-07-30T22:06:45;3.10;;;1.60;;
48403;SDS011;34202;52.536;6.042;2023-07-30T22:11:45;5.10;;;1.70;;
48403;SDS011;34202;52.536;6.042;2023-07-30T22:16:46;4.10;;;1.60;;
48403;SDS011;34202;52.536;6.042;2023-07-30T22:21:46;2.70;;;1.70;;
48403;SDS011;34202;52.536;6.042;2023-07-30T22:26:47;3.80;;;1.60;;
48403;SDS011;34202;52.536;6.042;2023-07-30T22:31:49;1.70;;;1.40;;
48403;SDS011;34202;52.536;6.042;2023-07-30T22:36:49;2.10;;;1.50;;
48403;SDS011;34202;52.536;6.042;2023-07-30T22:41:50;4.50;;;2.60;;
48403;SDS011;34202;52.536;6.042;2023-07-30T22:46:50;6.30;;;1.90;;
48403;SDS011;34202;52.536;6.042;2023-07-30T22:51:50;2.10;;;1.60;;
48403;SDS011;34202;52.536;6.042;2023-07-30T22:56:51;3.40;;;1.50;;
48403;SDS011;34202;52.536;6.042;2023-07-30T23:01:51;3.00;;;1.70;;
48403;SDS011;34202;52.536;6.042;2023-07-30T23:06:52;3.30;;;1.90;;
48403;SDS011;34202;52.536;6.042;2023-07-30T23:11:52;3.40;;;2.20;;
48403;SDS011;34202;52.536;6.042;2023-07-30T23:16:53;2.70;;;2.00;;
48403;SDS011;34202;52.536;6.042;2023-07-30T23:21:54;1.70;;;1.60;;
48403;SDS011;34202;52.536;6.042;2023-07-30T23:26:54;2.90;;;2.20;;
48403;SDS011;34202;52.536;6.042;2023-07-30T23:31:55;3.20;;;1.90;;
48403;SDS011;34202;52.536;6.042;2023-07-30T23:36:55;2.80;;;1.70;;
48403;SDS011;34202;52.536;6.042;2023-07-30T23:41:55;2.60;;;1.90;;
48403;SDS011;34202;52.536;6.042;2023-07-30T23:46:56;2.40;;;1.60;;
48403;SDS011;34202;52.536;6.042;2023-07-30T23:51:56;2.10;;;1.70;;
48403;SDS011;34202;52.536;6.042;2023-07-30T23:56:57;3.10;;;1.30;;
